KSTF

George M Bryan Airport

Starkville, Mississippi, USA
METAR KSTF 191155Z AUTO 00000KT 10SM CLR 02/02 A3005 RMK AO2 PWINO
Observed Flight Rules
Dec-19 @ 11:55 UTC (2 hours ago) Visual Flight Rules
Visibility Clouds
10 miles
  • Clear skies
Temperatures Readings
Current 2°C / 36°F
Dewpoint 2°C / 36°F
Humidity 100%
Altimeter 30.05" Hg
Pressure 1018 hPa
Elevation 102
METAR KSTF 191155Z AUTO 00000KT 10SM CLR 02/02 A3005 RMK AO2 PWINO
Observed Flight Rules
Dec-19 @ 11:55 UTC
(2 hours ago)
VFR
Clouds
  • Clear skies
Temperature Dewpoint
2°C / 36°F 2°C / 36°F
Humidity Altimeter Pressure
100% 30.05" Hg 1018 hPa